KHSV/HSV METAR and TAF weather

Enter ICAO airport designator
Station Type Date Time Source
KHSV METAR 2022/06/27 07:53 UTC NOAA

KHSV 270753Z AUTO 29003KT 10SM FEW080 23/22 A3008 RMK AO2 SLP177 T02280217 $


Station Type Date Time Source
KHSV Decoded METAR 2022/06/27 07:53 UTC NOAA

HUNTSVILLE INTERNATIONAL JONES FIELD, AL, United States (KHSV) 34-39N 086-47W 191M
Jun 27, 2022 - 03:53 AM EDT / 2022.06.27 0753 UTC
Wind: from the WNW (290 degrees) at 3 MPH (3 KT):0
Visibility: 10 mile(s):0
Sky conditions: mostly clear
Temperature: 73.0 F (22.8 C)
Dew Point: 71.1 F (21.7 C)
Relative Humidity: 93%
Pressure (altimeter): 30.08 in. Hg (1018 hPa)
ob: KHSV 270753Z AUTO 29003KT 10SM FEW080 23/22 A3008 RMK AO2 SLP177 T02280217
cycle: 8

Station Type Date Time Source
KHSV TAF 2022/06/27 06:27 UTC NOAA

TAF KHSV 270525Z 2706/2806 VRB04KT P6SM BKN120
FM271200 01008G18KT P6SM BKN040

Example: see airport list